createdAt,value
2023-01-22T00:02:41.289Z,2.38
2023-01-22T00:07:42.826Z,2.37
2023-01-22T00:12:44.562Z,2.46
2023-01-22T00:17:46.249Z,2.49
2023-01-22T00:22:47.968Z,2.58
2023-01-22T00:27:49.621Z,2.61
2023-01-22T00:32:51.418Z,2.57
2023-01-22T00:37:53.145Z,2.64
2023-01-22T00:42:54.752Z,2.37
2023-01-22T00:47:56.566Z,2.45
2023-01-22T00:52:58.285Z,2.28
2023-01-22T00:57:59.986Z,2.30
2023-01-22T01:03:01.688Z,2.09
2023-01-22T01:08:03.456Z,2.14
2023-01-22T01:13:05.090Z,2.15
2023-01-22T01:18:06.671Z,2.18
2023-01-22T01:23:08.362Z,2.11
2023-01-22T01:28:10.284Z,2.15
2023-01-22T01:33:12.611Z,2.21
2023-01-22T01:38:14.451Z,2.08
2023-01-22T01:43:17.924Z,2.04
2023-01-22T01:48:41.427Z,2.08
2023-01-22T01:53:45.907Z,2.06
2023-01-22T01:58:53.555Z,2.07
2023-01-22T02:03:55.645Z,2.07
2023-01-22T02:08:58.073Z,1.97
2023-01-22T02:14:06.222Z,2.03
2023-01-22T02:19:08.614Z,2.06
2023-01-22T02:24:17.061Z,2.09
2023-01-22T02:29:18.719Z,2.01
2023-01-22T02:34:20.452Z,2.11
2023-01-22T02:39:22.187Z,1.92
2023-01-22T02:44:25.582Z,1.95
2023-01-22T02:49:27.277Z,2.02
2023-01-22T02:54:29.217Z,2.05
2023-01-22T02:59:31.038Z,1.93
2023-01-22T03:04:32.614Z,1.95
2023-01-22T03:09:34.189Z,1.94
2023-01-22T03:14:36.629Z,2.02
2023-01-22T03:19:38.331Z,2.02
2023-01-22T03:24:47.212Z,1.92
2023-01-22T03:29:49.435Z,2.04
2023-01-22T03:34:52.936Z,1.98
2023-01-22T03:39:56.198Z,1.95
2023-01-22T03:45:08.265Z,1.95
2023-01-22T03:50:12.481Z,1.96
2023-01-22T03:55:15.777Z,1.95
2023-01-22T04:00:18.627Z,2.02
2023-01-22T04:05:20.791Z,2.07
2023-01-22T04:10:22.361Z,2.12
2023-01-22T04:15:24.575Z,2.05
2023-01-22T04:20:28.681Z,2.09
2023-01-22T04:25:53.928Z,2.12
2023-01-22T04:30:55.983Z,2.06
2023-01-22T04:36:12.764Z,2.19
2023-01-22T04:41:14.354Z,2.26
2023-01-22T04:46:15.996Z,2.22
2023-01-22T04:51:17.847Z,2.32
2023-01-22T04:56:20.072Z,2.36
2023-01-22T05:01:21.859Z,2.29
2023-01-22T05:06:24.856Z,2.37
2023-01-22T05:11:26.579Z,2.35
2023-01-22T05:16:34.299Z,2.40
2023-01-22T05:21:36.705Z,2.30
2023-01-22T05:26:39.965Z,2.41
2023-01-22T05:31:47.368Z,2.28
2023-01-22T05:37:07.800Z,2.30
2023-01-22T05:42:15.202Z,2.26
2023-01-22T05:47:19.061Z,2.27
2023-01-22T05:52:41.103Z,2.33
2023-01-22T05:57:45.728Z,2.30
2023-01-22T06:02:49.125Z,2.37
2023-01-22T06:07:50.856Z,2.31
2023-01-22T06:12:52.724Z,2.27
2023-01-22T06:17:59.629Z,2.34
2023-01-22T06:23:01.421Z,2.27
2023-01-22T06:28:05.601Z,2.30
2023-01-22T06:33:08.214Z,2.27
2023-01-22T06:38:10.132Z,2.28
2023-01-22T06:43:11.959Z,2.31
2023-01-22T06:48:13.928Z,2.30
2023-01-22T06:53:15.500Z,2.31
2023-01-22T06:58:18.711Z,2.28
2023-01-22T07:03:20.756Z,2.30
2023-01-22T07:08:22.293Z,2.34
2023-01-22T07:13:23.910Z,2.27
2023-01-22T07:18:25.454Z,2.33
2023-01-22T07:23:27.024Z,2.18
2023-01-22T07:28:28.686Z,2.14
2023-01-22T07:33:30.345Z,2.25
2023-01-22T07:38:31.885Z,2.19
2023-01-22T07:43:33.504Z,2.20
2023-01-22T07:48:35.149Z,2.22
2023-01-22T07:53:36.674Z,2.27
2023-01-22T07:58:38.799Z,2.26
2023-01-22T08:03:40.371Z,2.34
2023-01-22T08:08:41.912Z,2.37
2023-01-22T08:13:43.480Z,2.33
2023-01-22T08:18:45.046Z,2.31
2023-01-22T08:23:49.082Z,2.27
2023-01-22T08:28:51.025Z,2.29
2023-01-22T08:33:53.260Z,2.30
2023-01-22T08:38:55.826Z,2.37
2023-01-22T08:43:57.607Z,2.47
2023-01-22T08:48:59.342Z,2.56
2023-01-22T08:54:00.919Z,2.60
2023-01-22T08:59:02.516Z,2.68
2023-01-22T09:04:06.886Z,2.82
2023-01-22T09:09:08.593Z,2.84
2023-01-22T09:14:10.569Z,2.92
2023-01-22T09:19:12.751Z,2.91
2023-01-22T09:24:14.549Z,2.96
2023-01-22T09:29:16.273Z,3.06
2023-01-22T09:34:17.798Z,3.09
2023-01-22T09:39:19.652Z,3.19
2023-01-22T09:44:40.002Z,3.16
2023-01-22T09:50:04.437Z,3.39
2023-01-22T09:55:12.698Z,3.27
2023-01-22T10:00:18.039Z,3.29
2023-01-22T10:05:43.114Z,3.34
2023-01-22T10:10:44.696Z,3.24
2023-01-22T10:15:47.693Z,3.08
2023-01-22T10:20:50.136Z,3.28
2023-01-22T10:26:18.500Z,3.33
2023-01-22T10:31:36.137Z,3.36
2023-01-22T10:36:37.712Z,3.17
2023-01-22T10:41:40.869Z,3.37
2023-01-22T10:46:42.977Z,3.33
2023-01-22T10:51:50.895Z,3.40
2023-01-22T10:57:03.084Z,3.58
2023-01-22T11:02:20.747Z,3.69
2023-01-22T11:07:26.347Z,3.72
2023-01-22T11:12:41.491Z,3.91
2023-01-22T11:17:50.279Z,3.92
2023-01-22T11:23:03.092Z,3.83
2023-01-22T11:28:47.948Z,3.91
2023-01-22T11:33:58.389Z,3.85
2023-01-22T11:39:18.089Z,3.96
2023-01-22T11:44:25.594Z,4.17
2023-01-22T11:49:44.309Z,3.88
2023-01-22T11:55:08.531Z,3.98
2023-01-22T12:00:28.746Z,4.04
2023-01-22T12:05:46.155Z,3.97
2023-01-22T12:11:06.588Z,4.03
2023-01-22T12:16:44.127Z,4.12
2023-01-22T12:21:57.799Z,4.00
2023-01-22T12:27:39.034Z,4.07
2023-01-22T12:32:45.355Z,4.12
2023-01-22T12:38:31.276Z,3.84
2023-01-22T12:43:46.682Z,4.05
2023-01-22T12:49:04.801Z,4.04
2023-01-22T12:54:27.313Z,4.05
2023-01-22T12:59:34.788Z,3.96
2023-01-22T13:04:36.445Z,3.97
2023-01-22T13:09:38.034Z,3.98
2023-01-22T13:14:41.506Z,4.03
2023-01-22T13:19:44.496Z,4.03
2023-01-22T13:24:57.597Z,4.02
2023-01-22T13:30:17.192Z,4.01
2023-01-22T13:35:20.089Z,3.99
2023-01-22T13:40:25.237Z,4.03
2023-01-22T13:45:30.142Z,4.04
2023-01-22T13:50:32.344Z,4.12
2023-01-22T13:55:34.684Z,4.03
2023-01-22T14:00:37.000Z,4.13
2023-01-22T14:05:38.721Z,4.04
2023-01-22T14:10:41.434Z,4.11
2023-01-22T14:15:55.450Z,4.12
2023-01-22T14:20:57.329Z,4.18
2023-01-22T14:26:03.531Z,4.19
2023-01-22T14:31:05.140Z,4.24
2023-01-22T14:36:07.369Z,4.11
2023-01-22T14:41:08.945Z,4.04
2023-01-22T14:46:10.755Z,4.04
2023-01-22T14:51:12.438Z,4.05
2023-01-22T14:56:14.173Z,4.09
2023-01-22T15:01:21.185Z,3.97
2023-01-22T15:06:26.100Z,4.00
2023-01-22T15:11:27.758Z,4.01
2023-01-22T15:16:29.575Z,3.94
2023-01-22T15:21:33.533Z,3.95
2023-01-22T15:26:36.870Z,3.93
2023-01-22T15:31:39.335Z,3.89
2023-01-22T15:36:40.971Z,3.87
2023-01-22T15:41:43.572Z,3.87
2023-01-22T15:46:45.118Z,3.78
2023-01-22T15:51:46.824Z,3.83
2023-01-22T15:56:48.497Z,3.74
2023-01-22T16:01:50.095Z,3.74
2023-01-22T16:06:51.689Z,3.72
2023-01-22T16:11:53.275Z,3.73
2023-01-22T16:16:55.065Z,3.79
2023-01-22T16:21:56.674Z,3.74
2023-01-22T16:26:58.443Z,3.71
2023-01-22T16:31:59.935Z,3.68
2023-01-22T16:37:01.555Z,3.73
2023-01-22T16:42:03.318Z,3.70
2023-01-22T16:47:04.981Z,3.67
2023-01-22T16:52:21.425Z,3.68
2023-01-22T16:57:24.353Z,3.63
2023-01-22T17:02:26.145Z,3.63
2023-01-22T17:07:33.746Z,3.68
2023-01-22T17:12:36.044Z,3.70
2023-01-22T17:17:37.755Z,3.64
2023-01-22T17:22:39.432Z,3.63
2023-01-22T17:27:41.051Z,3.71
2023-01-22T17:32:42.668Z,3.68
2023-01-22T17:37:45.018Z,3.66
2023-01-22T17:42:46.686Z,3.65
2023-01-22T17:47:48.415Z,3.67
2023-01-22T17:52:50.088Z,3.69
2023-01-22T17:57:54.751Z,3.66
2023-01-22T18:02:56.425Z,3.71
2023-01-22T18:08:02.981Z,3.70
2023-01-22T18:13:04.688Z,3.57
2023-01-22T18:18:07.607Z,3.68
2023-01-22T18:23:09.212Z,3.67
2023-01-22T18:28:10.884Z,3.70
2023-01-22T18:33:13.712Z,3.71
2023-01-22T18:38:16.671Z,3.66
2023-01-22T18:43:19.591Z,3.77
2023-01-22T18:48:21.337Z,3.71
2023-01-22T18:53:23.366Z,3.73
2023-01-22T18:58:25.213Z,3.71
2023-01-22T19:03:26.993Z,3.72
2023-01-22T19:08:28.544Z,3.71
2023-01-22T19:13:30.189Z,3.68
2023-01-22T19:18:31.870Z,3.67
2023-01-22T19:23:34.285Z,3.66
2023-01-22T19:28:36.713Z,3.67
2023-01-22T19:33:38.355Z,3.67
2023-01-22T19:38:40.052Z,3.67
2023-01-22T19:43:41.812Z,3.77
2023-01-22T19:48:43.424Z,3.72
2023-01-22T19:53:45.432Z,3.77
2023-01-22T19:58:48.135Z,3.79
2023-01-22T20:03:50.127Z,3.74
2023-01-22T20:08:54.642Z,3.80
2023-01-22T20:13:57.212Z,3.75
2023-01-22T20:18:58.799Z,3.73
2023-01-22T20:24:00.307Z,3.72
2023-01-22T20:29:02.080Z,3.74
2023-01-22T20:34:03.679Z,3.75
2023-01-22T20:39:05.241Z,3.73
2023-01-22T20:44:06.961Z,3.72
2023-01-22T20:49:08.719Z,3.67
2023-01-22T20:54:10.970Z,3.72
2023-01-22T20:59:15.323Z,3.68
2023-01-22T21:04:17.859Z,3.66
2023-01-22T21:09:19.479Z,3.67
2023-01-22T21:14:21.063Z,3.62
2023-01-22T21:19:23.844Z,3.59
2023-01-22T21:24:25.882Z,3.67
2023-01-22T21:29:27.472Z,3.64
2023-01-22T21:34:29.132Z,3.65
2023-01-22T21:39:30.733Z,3.61
2023-01-22T21:44:32.372Z,3.63
2023-01-22T21:49:33.948Z,3.63
2023-01-22T21:54:39.487Z,3.61
2023-01-22T21:59:41.438Z,3.62
2023-01-22T22:04:43.374Z,3.67
2023-01-22T22:09:45.163Z,3.63
2023-01-22T22:14:49.937Z,3.64
2023-01-22T22:19:51.457Z,3.57
2023-01-22T22:24:52.982Z,3.66
2023-01-22T22:29:54.588Z,3.57
2023-01-22T22:34:56.347Z,3.62
2023-01-22T22:39:58.039Z,3.63
2023-01-22T22:44:59.606Z,3.59
2023-01-22T22:50:01.149Z,3.62
2023-01-22T22:55:03.782Z,3.64
2023-01-22T23:00:11.111Z,3.60
2023-01-22T23:05:12.736Z,3.60
2023-01-22T23:10:14.266Z,3.67
2023-01-22T23:15:15.859Z,3.63
2023-01-22T23:20:18.042Z,3.63
2023-01-22T23:25:19.953Z,3.66
2023-01-22T23:30:21.727Z,3.69
2023-01-22T23:35:23.411Z,3.62
2023-01-22T23:40:25.072Z,3.58
2023-01-22T23:45:27.251Z,3.61
2023-01-22T23:50:28.904Z,3.63
2023-01-22T23:55:31.738Z,3.59
